Terminal Aerodrome Forecast
Issued by NWS Denver/Boulder, CO

Home | Current Version | Previous Version | Text Only | Print | Product List | Glossary On
Versions: 1 2 3 4 5 6 7 8 9 10 11 12 13 14 15 16 17 18 19 20 21 22 23 24 25 26 27 28 29 30 31 32 33 34 35 36 37 38 39 40 41 42 43 44 45 46 47 48 49 50
000
FTUS45 KBOU 200522
TAFDEN
TAF
KDEN 200522Z 2006/2112 05010KT 3SM -SN BR OVC030
     FM200700 03008KT 5SM BR OVC015
     FM201000 03007KT 3SM BR SCT004 OVC008
     FM201500 11004KT P6SM SCT015 BKN025
     FM201800 06007KT P6SM SCT030 OVC045
     FM210100 13008KT P6SM SCT050 BKN100=

USA.gov is the U.S. government's official web portal to all federal, state and local government web resources and services.